In Rescue
 
Open Full Screen Window  High Contrast Mode
Wind Gusting 14 knots
11
April 03, 2020 12:31 AM CDT
Present Weather: Rain
Weather Information
Wind Direction
  250 °
Wind Speed
  11 kt (13 mph)
Wind Gust
  14 kt (16 mph)
Altimeter
29.96 in
Visibility
7 SM
Temperature
04° C
39° F
Dewpoint
04° C
39° F
Humidity
100%
1hr Rain Fall
00.01 in.
24hr Rain Fall
00.05 in.
Sky Condition
Overcast @ 4,300 ft
Broken @ 1,200 ft
Scattered @ 600 ft
MVFR

METAR KLVN 030531Z AUTO 25011G14KT 7SM RA SCT006 BKN012 OVC043 04/04 A2996 RMK AO2 P0001 P0001

FAA Disclaimer: The data displayed is for advisory purposes only and is not to be used for flight planning or operations.